createdAt,value
2019-02-25T00:01:35.496Z,0.60
2019-02-25T00:04:23.405Z,0.60
2019-02-25T00:07:11.339Z,0.50
2019-02-25T00:09:59.310Z,0.40
2019-02-25T00:12:46.918Z,0.40
2019-02-25T00:15:34.130Z,0.40
2019-02-25T00:18:21.586Z,0.40
2019-02-25T00:21:09.573Z,0.30
2019-02-25T00:23:57.201Z,0.30
2019-02-25T00:26:44.792Z,0.30
2019-02-25T00:29:31.989Z,0.30
2019-02-25T00:32:19.165Z,0.30
2019-02-25T00:35:06.728Z,0.20
2019-02-25T00:37:54.420Z,0.20
2019-02-25T00:40:42.246Z,0.20
2019-02-25T00:43:29.835Z,0.30
2019-02-25T00:46:17.611Z,0.30
2019-02-25T00:49:05.377Z,0.40
2019-02-25T00:51:53.260Z,0.50
2019-02-25T00:54:40.827Z,0.50
2019-02-25T00:57:28.145Z,0.40
2019-02-25T01:00:16.281Z,0.30
2019-02-25T01:03:04.421Z,0.20
2019-02-25T01:05:51.832Z,0.20
2019-02-25T01:08:39.327Z,0.00
2019-02-25T01:11:27.062Z,0.00
2019-02-25T01:14:15.053Z,0.10
2019-02-25T01:17:03.051Z,0.10
2019-02-25T01:19:50.393Z,0.10
2019-02-25T01:22:38.155Z,0.10
2019-02-25T01:25:26.211Z,0.00
2019-02-25T01:28:14.483Z,-0.10
2019-02-25T01:31:02.207Z,-0.20
2019-02-25T01:33:49.958Z,-0.30
2019-02-25T01:36:37.875Z,-0.20
2019-02-25T01:39:25.558Z,-0.20
2019-02-25T01:42:13.184Z,-0.20
2019-02-25T01:45:00.716Z,-0.20
2019-02-25T01:47:47.915Z,-0.20
2019-02-25T01:50:35.298Z,-0.20
2019-02-25T01:53:22.693Z,-0.20
2019-02-25T01:56:10.110Z,-0.20
2019-02-25T01:58:57.771Z,-0.30
2019-02-25T02:01:45.562Z,-0.50
2019-02-25T02:04:33.634Z,-0.50
2019-02-25T02:07:21.611Z,-0.50
2019-02-25T02:10:10.736Z,-0.50
2019-02-25T02:12:58.105Z,-0.50
2019-02-25T02:15:45.200Z,-0.30
2019-02-25T02:18:32.600Z,-0.40
2019-02-25T02:21:19.954Z,-0.40
2019-02-25T02:24:07.418Z,-0.40
2019-02-25T02:26:55.155Z,-0.50
2019-02-25T02:29:42.827Z,-0.60
2019-02-25T02:32:30.476Z,-0.70
2019-02-25T02:35:18.141Z,-0.80
2019-02-25T02:38:05.683Z,-0.90
2019-02-25T02:40:53.801Z,-0.90
2019-02-25T02:43:41.643Z,-0.90
2019-02-25T02:47:00.685Z,-0.90
2019-02-25T02:49:48.511Z,-1.00
2019-02-25T02:52:36.072Z,-1.00
2019-02-25T02:55:23.659Z,-1.10
2019-02-25T02:58:11.415Z,-1.10
2019-02-25T03:00:59.177Z,-1.00
2019-02-25T03:03:46.917Z,-1.10
2019-02-25T03:06:34.075Z,-1.10
2019-02-25T03:09:21.555Z,-1.10
2019-02-25T03:12:08.911Z,-1.10
2019-02-25T03:14:56.540Z,-1.10
2019-02-25T03:17:43.806Z,-1.20
2019-02-25T03:20:31.805Z,-1.20
2019-02-25T03:23:19.690Z,-1.30
2019-02-25T03:26:07.896Z,-1.30
2019-02-25T03:28:55.096Z,-1.30
2019-02-25T03:31:42.850Z,-1.30
2019-02-25T03:34:30.458Z,-1.30
2019-02-25T03:37:18.124Z,-1.50
2019-02-25T03:40:06.228Z,-1.60
2019-02-25T03:42:53.297Z,-1.60
2019-02-25T03:45:40.995Z,-1.60
2019-02-25T03:48:28.540Z,-1.60
2019-02-25T03:51:16.153Z,-1.60
2019-02-25T03:54:03.491Z,-1.60
2019-02-25T03:56:50.898Z,-1.60
2019-02-25T03:59:38.344Z,-1.50
2019-02-25T04:02:25.875Z,-1.50
2019-02-25T04:05:13.343Z,-1.60
2019-02-25T04:08:00.846Z,-1.80
2019-02-25T04:10:48.886Z,-1.80
2019-02-25T04:13:36.788Z,-1.90
2019-02-25T04:16:24.157Z,-1.90
2019-02-25T04:19:11.830Z,-2.00
2019-02-25T04:22:08.375Z,-2.00
2019-02-25T04:25:28.235Z,-1.80
2019-02-25T04:28:27.970Z,-1.80
2019-02-25T04:31:22.450Z,-2.00
2019-02-25T04:34:24.203Z,-2.10
2019-02-25T04:37:18.503Z,-2.10
2019-02-25T04:40:10.424Z,-2.10
2019-02-25T04:43:42.935Z,-2.30
2019-02-25T04:47:02.127Z,-2.30
2019-02-25T04:50:06.002Z,-2.40
2019-02-25T04:53:39.934Z,-2.40
2019-02-25T05:01:07.998Z,-2.40
2019-02-25T05:03:45.254Z,-2.40
2019-02-25T05:13:35.341Z,-2.50
2019-02-25T05:17:02.145Z,-2.50
2019-02-25T05:20:23.711Z,-2.40
2019-02-25T05:23:35.826Z,-2.50
2019-02-25T05:27:08.377Z,-2.40
2019-02-25T05:30:00.934Z,-2.50
2019-02-25T05:33:06.195Z,-2.60
2019-02-25T05:35:56.918Z,-2.60
2019-02-25T05:39:29.369Z,-2.70
2019-02-25T05:43:09.483Z,-2.60
2019-02-25T05:46:37.629Z,-2.70
2019-02-25T05:49:53.295Z,-2.60
2019-02-25T05:53:07.786Z,-2.50
2019-02-25T05:55:57.159Z,-2.60
2019-02-25T06:01:59.519Z,-2.70
2019-02-25T06:04:47.793Z,-2.60
2019-02-25T06:07:44.268Z,-2.70
2019-02-25T06:14:29.548Z,-2.80
2019-02-25T06:17:17.247Z,-2.80
2019-02-25T06:20:05.908Z,-2.70
2019-02-25T06:22:54.572Z,-2.80
2019-02-25T06:25:43.007Z,-2.70
2019-02-25T06:28:30.952Z,-2.70
2019-02-25T06:31:19.025Z,-2.60
2019-02-25T06:34:07.429Z,-2.50
2019-02-25T06:36:55.745Z,-2.30
2019-02-25T06:39:44.791Z,-2.40
2019-02-25T06:42:32.484Z,-2.30
2019-02-25T06:45:20.370Z,-2.40
2019-02-25T06:48:14.178Z,-2.30
2019-02-25T06:51:00.765Z,-2.30
2019-02-25T06:53:48.398Z,-2.40
2019-02-25T06:56:36.292Z,-2.40
2019-02-25T06:59:24.323Z,-2.20
2019-02-25T07:02:12.491Z,-2.10
2019-02-25T07:05:21.798Z,-2.00
2019-02-25T07:08:31.704Z,-2.00
2019-02-25T07:11:43.502Z,-1.60
2019-02-25T07:14:40.426Z,-1.50
2019-02-25T07:17:48.752Z,-1.40
2019-02-25T07:21:08.970Z,-1.20
2019-02-25T07:24:16.034Z,-1.00
2019-02-25T07:27:35.226Z,-0.50
2019-02-25T07:30:45.141Z,0.30
2019-02-25T07:33:48.534Z,1.10
2019-02-25T07:36:42.862Z,1.60
2019-02-25T07:39:37.577Z,1.80
2019-02-25T07:42:46.179Z,2.50
2019-02-25T07:45:40.611Z,3.00
2019-02-25T07:48:59.730Z,3.70
2019-02-25T07:52:06.694Z,4.20
2019-02-25T07:55:09.693Z,4.70
2019-02-25T07:58:29.101Z,5.00
2019-02-25T08:01:42.267Z,4.60
2019-02-25T08:04:55.887Z,5.10
2019-02-25T08:08:03.152Z,6.30
2019-02-25T08:11:14.755Z,6.00
2019-02-25T08:14:27.675Z,6.60
2019-02-25T08:17:48.062Z,5.90
2019-02-25T08:20:54.943Z,5.90
2019-02-25T08:24:09.432Z,5.50
2019-02-25T08:27:15.547Z,5.60
2019-02-25T08:30:14.197Z,5.60
2019-02-25T08:33:10.321Z,5.60
2019-02-25T08:37:11.507Z,5.80
2019-02-25T08:40:28.527Z,6.30
2019-02-25T08:43:34.299Z,6.50
2019-02-25T08:46:41.302Z,6.50
2019-02-25T08:49:32.027Z,7.30
2019-02-25T08:52:23.289Z,8.20
2019-02-25T08:55:11.465Z,8.10
2019-02-25T08:58:00.508Z,8.70
2019-02-25T09:00:48.568Z,9.10
2019-02-25T09:03:36.965Z,9.50
2019-02-25T09:06:25.053Z,10.10
2019-02-25T09:09:12.963Z,10.80
2019-02-25T09:12:02.767Z,10.50
2019-02-25T09:14:53.520Z,9.90
2019-02-25T09:17:43.829Z,9.80
2019-02-25T09:20:31.837Z,9.80
2019-02-25T09:23:21.298Z,10.10
2019-02-25T09:26:09.030Z,10.10
2019-02-25T09:29:05.297Z,10.90
2019-02-25T09:31:54.271Z,11.40
2019-02-25T09:34:46.957Z,12.20
2019-02-25T09:37:34.946Z,12.80
2019-02-25T09:40:23.095Z,14.10
2019-02-25T09:43:10.729Z,14.10
2019-02-25T09:45:58.949Z,14.30
2019-02-25T09:48:51.455Z,14.60
2019-02-25T09:51:41.879Z,14.50
2019-02-25T09:54:32.527Z,14.50
2019-02-25T09:57:20.259Z,14.80
2019-02-25T10:00:13.945Z,14.90
2019-02-25T10:03:02.039Z,15.30
2019-02-25T10:05:50.383Z,15.20
2019-02-25T10:08:38.416Z,15.30
2019-02-25T10:11:29.833Z,15.70
2019-02-25T10:14:21.448Z,16.20
2019-02-25T10:17:11.707Z,16.30
2019-02-25T10:19:59.438Z,15.90
2019-02-25T10:22:53.050Z,15.40
2019-02-25T10:25:41.183Z,15.60
2019-02-25T10:28:29.299Z,16.20
2019-02-25T10:31:17.524Z,16.00
2019-02-25T10:34:05.205Z,15.80
2019-02-25T10:37:41.221Z,16.10
2019-02-25T10:41:42.571Z,16.10
2019-02-25T10:44:31.888Z,16.00
2019-02-25T10:47:21.147Z,16.60
2019-02-25T10:50:10.507Z,17.00
2019-02-25T10:53:08.438Z,17.50
2019-02-25T10:56:10.392Z,17.70
2019-02-25T10:59:06.166Z,17.30
2019-02-25T11:02:03.215Z,17.70
2019-02-25T11:04:53.587Z,17.70
2019-02-25T11:07:42.082Z,17.30
2019-02-25T11:10:37.152Z,17.50
2019-02-25T11:13:27.557Z,18.00
2019-02-25T11:16:20.454Z,17.60
2019-02-25T11:19:07.909Z,17.70
2019-02-25T11:22:05.517Z,18.00
2019-02-25T11:24:55.535Z,18.30
2019-02-25T11:27:45.849Z,19.20
2019-02-25T11:30:33.845Z,19.30
2019-02-25T11:33:22.752Z,18.80
2019-02-25T11:36:12.717Z,18.80
2019-02-25T11:39:02.464Z,18.40
2019-02-25T11:41:50.960Z,18.30
2019-02-25T11:44:39.356Z,18.10
2019-02-25T11:47:27.602Z,17.90
2019-02-25T11:50:15.621Z,17.90
2019-02-25T11:53:02.974Z,17.90
2019-02-25T11:55:50.673Z,17.90
2019-02-25T11:58:38.570Z,18.00
2019-02-25T12:01:26.555Z,18.50
2019-02-25T12:04:15.016Z,19.10
2019-02-25T12:07:03.995Z,19.00
2019-02-25T12:09:51.858Z,18.70
2019-02-25T12:12:40.132Z,19.30
2019-02-25T12:15:29.118Z,19.40
2019-02-25T12:18:17.257Z,19.20
2019-02-25T12:21:05.859Z,19.10
2019-02-25T12:23:54.260Z,19.30
2019-02-25T12:26:41.942Z,19.40
2019-02-25T12:29:30.159Z,19.20
2019-02-25T12:32:17.663Z,18.90
2019-02-25T12:35:06.564Z,19.10
2019-02-25T12:37:54.040Z,18.50
2019-02-25T12:40:42.031Z,19.10
2019-02-25T12:43:31.678Z,19.20
2019-02-25T12:46:19.485Z,19.20
2019-02-25T12:49:07.301Z,19.80
2019-02-25T12:51:55.050Z,20.40
2019-02-25T12:54:42.805Z,20.60
2019-02-25T12:57:30.553Z,20.40
2019-02-25T13:00:18.243Z,20.30
2019-02-25T13:03:06.376Z,20.30
2019-02-25T13:05:55.575Z,20.30
2019-02-25T13:08:43.251Z,19.80
2019-02-25T13:11:31.456Z,19.90
2019-02-25T13:14:20.609Z,20.00
2019-02-25T13:17:08.689Z,20.30
2019-02-25T13:19:57.651Z,20.20
2019-02-25T13:22:45.265Z,20.40
2019-02-25T13:25:33.194Z,20.00
2019-02-25T13:28:23.602Z,19.90
2019-02-25T13:31:12.345Z,20.20
2019-02-25T13:34:02.280Z,20.30
2019-02-25T13:36:50.356Z,20.10
2019-02-25T13:39:38.152Z,20.40
2019-02-25T13:42:27.807Z,20.50
2019-02-25T13:45:15.686Z,20.60
2019-02-25T13:48:04.460Z,20.80
2019-02-25T13:50:55.392Z,21.30
2019-02-25T13:53:46.347Z,22.00
2019-02-25T13:56:36.474Z,22.50
2019-02-25T13:59:24.153Z,22.80
2019-02-25T14:02:16.679Z,22.90
2019-02-25T14:05:07.451Z,23.10
2019-02-25T14:07:55.030Z,23.00
2019-02-25T14:10:42.990Z,23.50
2019-02-25T14:13:31.201Z,23.50
2019-02-25T14:16:19.284Z,23.80
2019-02-25T14:19:07.076Z,24.50
2019-02-25T14:21:56.038Z,24.60
2019-02-25T14:24:43.628Z,24.80
2019-02-25T14:27:31.451Z,24.10
2019-02-25T14:30:21.578Z,24.20
2019-02-25T14:33:09.440Z,24.80
2019-02-25T14:35:57.538Z,25.00
2019-02-25T14:38:46.480Z,24.90
2019-02-25T14:41:34.330Z,24.50
2019-02-25T14:44:22.375Z,25.70
2019-02-25T14:47:20.691Z,25.60
2019-02-25T14:50:02.599Z,25.50
2019-02-25T14:52:50.971Z,25.50
2019-02-25T14:56:14.695Z,25.80
2019-02-25T14:59:38.891Z,25.30
2019-02-25T15:02:28.803Z,25.40
2019-02-25T15:05:17.317Z,25.50
2019-02-25T15:08:07.046Z,24.90
2019-02-25T15:10:57.710Z,24.80
2019-02-25T15:13:44.571Z,24.40
2019-02-25T15:16:32.716Z,24.10
2019-02-25T15:19:23.687Z,24.20
2019-02-25T15:22:11.614Z,24.40
2019-02-25T15:24:59.671Z,24.50
2019-02-25T15:27:47.826Z,24.30
2019-02-25T15:30:36.271Z,23.70
2019-02-25T15:33:24.926Z,23.70
2019-02-25T15:36:17.868Z,23.80
2019-02-25T15:39:10.856Z,23.30
2019-02-25T15:41:57.621Z,22.70
2019-02-25T15:44:47.186Z,21.50
2019-02-25T15:47:34.179Z,21.50
2019-02-25T15:50:21.769Z,22.30
2019-02-25T15:53:11.601Z,22.70
2019-02-25T15:56:01.056Z,22.70
2019-02-25T15:58:48.287Z,22.00
2019-02-25T16:01:35.585Z,21.70
2019-02-25T16:04:25.504Z,22.20
2019-02-25T16:07:14.109Z,21.90
2019-02-25T16:10:04.921Z,21.30
2019-02-25T16:12:55.810Z,20.70
2019-02-25T16:15:41.142Z,20.10
2019-02-25T16:18:29.077Z,19.30
2019-02-25T16:21:16.958Z,18.90
2019-02-25T16:24:07.670Z,18.60
2019-02-25T16:26:54.140Z,17.90
2019-02-25T16:29:42.604Z,17.40
2019-02-25T16:32:30.366Z,17.10
2019-02-25T16:35:18.610Z,16.90
2019-02-25T16:38:21.132Z,16.80
2019-02-25T16:41:08.493Z,16.70
2019-02-25T16:43:57.411Z,16.40
2019-02-25T16:46:46.748Z,16.10
2019-02-25T16:49:36.017Z,15.90
2019-02-25T16:52:24.464Z,15.50
2019-02-25T16:55:15.354Z,15.30
2019-02-25T16:58:03.690Z,15.10
2019-02-25T17:00:51.825Z,14.60
2019-02-25T17:03:41.426Z,14.40
2019-02-25T17:06:30.394Z,14.10
2019-02-25T17:09:21.704Z,14.00
2019-02-25T17:12:09.600Z,13.80
2019-02-25T17:14:57.246Z,13.60
2019-02-25T17:17:44.930Z,13.40
2019-02-25T17:20:32.158Z,13.20
2019-02-25T17:23:19.254Z,12.80
2019-02-25T17:26:07.723Z,12.30
2019-02-25T17:28:55.982Z,12.00
2019-02-25T17:31:43.729Z,11.90
2019-02-25T17:34:32.250Z,11.70
2019-02-25T17:37:20.978Z,11.30
2019-02-25T17:40:11.307Z,11.10
2019-02-25T17:42:58.609Z,10.80
2019-02-25T17:45:46.005Z,10.70
2019-02-25T17:48:33.300Z,10.70
2019-02-25T17:51:22.654Z,10.40
2019-02-25T17:54:12.332Z,10.20
2019-02-25T17:56:59.690Z,10.10
2019-02-25T17:59:48.759Z,9.90
2019-02-25T18:02:38.038Z,9.80
2019-02-25T18:05:25.667Z,9.70
2019-02-25T18:08:15.363Z,9.70
2019-02-25T18:11:03.195Z,9.60
2019-02-25T18:13:51.784Z,9.40
2019-02-25T18:16:43.604Z,9.30
2019-02-25T18:19:29.476Z,9.30
2019-02-25T18:22:17.352Z,9.20
2019-02-25T18:25:05.232Z,9.10
2019-02-25T18:27:52.792Z,9.10
2019-02-25T18:30:40.878Z,9.10
2019-02-25T18:33:29.495Z,8.90
2019-02-25T18:36:17.607Z,8.70
2019-02-25T18:39:10.251Z,8.50
2019-02-25T18:41:57.686Z,8.30
2019-02-25T18:44:46.552Z,8.20
2019-02-25T18:47:34.624Z,8.10
2019-02-25T18:50:23.682Z,8.00
2019-02-25T18:53:11.538Z,7.90
2019-02-25T18:55:59.278Z,7.80
2019-02-25T18:58:46.764Z,7.70
2019-02-25T19:01:34.868Z,7.60
2019-02-25T19:04:22.522Z,7.50
2019-02-25T19:07:10.384Z,7.40
2019-02-25T19:09:58.215Z,7.10
2019-02-25T19:12:47.697Z,7.00
2019-02-25T19:15:34.791Z,6.90
2019-02-25T19:18:22.657Z,6.90
2019-02-25T19:21:10.950Z,6.70
2019-02-25T19:23:58.520Z,6.70
2019-02-25T19:26:47.282Z,6.70
2019-02-25T19:29:35.429Z,6.90
2019-02-25T19:32:23.678Z,6.80
2019-02-25T19:35:11.303Z,6.60
2019-02-25T19:38:01.228Z,6.40
2019-02-25T19:40:51.243Z,6.30
2019-02-25T19:43:39.268Z,6.30
2019-02-25T19:46:28.543Z,6.40
2019-02-25T19:49:18.862Z,6.50
2019-02-25T19:52:07.522Z,6.40
2019-02-25T19:54:55.987Z,6.20
2019-02-25T19:57:48.164Z,6.00
2019-02-25T20:00:36.542Z,5.80
2019-02-25T20:03:25.101Z,5.80
2019-02-25T20:06:15.940Z,5.70
2019-02-25T20:09:01.616Z,5.70
2019-02-25T20:11:49.453Z,5.70
2019-02-25T20:14:38.282Z,5.80
2019-02-25T20:17:28.928Z,5.80
2019-02-25T20:20:17.442Z,5.90
2019-02-25T20:23:06.268Z,5.90
2019-02-25T20:25:55.588Z,5.90
2019-02-25T20:28:45.518Z,5.90
2019-02-25T20:31:32.498Z,5.70
2019-02-25T20:34:20.783Z,5.60
2019-02-25T20:37:09.135Z,5.70
2019-02-25T20:39:56.869Z,5.60
2019-02-25T20:42:46.773Z,5.50
2019-02-25T20:45:35.359Z,5.40
2019-02-25T20:48:22.584Z,5.20
2019-02-25T20:51:11.838Z,5.10
2019-02-25T20:53:59.370Z,5.00
2019-02-25T20:56:46.818Z,4.80
2019-02-25T20:59:36.007Z,4.60
2019-02-25T21:02:25.277Z,4.70
2019-02-25T21:05:14.680Z,4.50
2019-02-25T21:08:01.982Z,4.40
2019-02-25T21:10:49.857Z,4.30
2019-02-25T21:13:38.069Z,4.20
2019-02-25T21:16:28.296Z,4.10
2019-02-25T21:19:17.574Z,4.20
2019-02-25T21:22:06.473Z,4.20
2019-02-25T21:24:55.751Z,4.10
2019-02-25T21:27:42.781Z,4.10
2019-02-25T21:30:30.519Z,3.80
2019-02-25T21:33:19.876Z,3.80
2019-02-25T21:36:07.684Z,4.00
2019-02-25T21:38:56.048Z,3.90
2019-02-25T21:41:44.067Z,3.80
2019-02-25T21:44:32.133Z,3.60
2019-02-25T21:47:20.392Z,3.40
2019-02-25T21:50:11.895Z,3.50
2019-02-25T21:52:59.279Z,3.50
2019-02-25T21:55:46.740Z,3.50
2019-02-25T21:58:34.399Z,3.60
2019-02-25T22:01:21.450Z,3.50
2019-02-25T22:04:11.196Z,3.50
2019-02-25T22:06:58.091Z,3.40
2019-02-25T22:09:46.582Z,3.40
2019-02-25T22:12:35.835Z,3.40
2019-02-25T22:15:23.175Z,3.40
2019-02-25T22:18:11.428Z,3.30
2019-02-25T22:20:59.789Z,3.30
2019-02-25T22:23:49.431Z,3.20
2019-02-25T22:26:37.684Z,2.90
2019-02-25T22:29:24.837Z,2.80
2019-02-25T22:32:12.349Z,2.70
2019-02-25T22:35:02.201Z,2.70
2019-02-25T22:37:52.087Z,2.70
2019-02-25T22:40:38.947Z,2.70
2019-02-25T22:43:26.876Z,2.60
2019-02-25T22:46:14.414Z,2.60
2019-02-25T22:49:02.918Z,2.50
2019-02-25T22:51:51.923Z,2.60
2019-02-25T22:54:41.750Z,2.60
2019-02-25T22:57:29.653Z,2.70
2019-02-25T23:00:27.171Z,2.90
2019-02-25T23:03:16.060Z,2.90
2019-02-25T23:06:03.713Z,2.60
2019-02-25T23:08:53.408Z,2.50
2019-02-25T23:11:42.151Z,2.50
2019-02-25T23:14:31.894Z,2.70
2019-02-25T23:17:19.508Z,2.60
2019-02-25T23:20:09.405Z,2.60
2019-02-25T23:22:57.366Z,2.60
2019-02-25T23:25:47.027Z,2.50
2019-02-25T23:28:34.940Z,2.40
2019-02-25T23:31:22.154Z,2.20
2019-02-25T23:34:10.272Z,2.10
2019-02-25T23:36:58.483Z,2.00
2019-02-25T23:39:46.852Z,2.00
2019-02-25T23:42:37.135Z,2.00
2019-02-25T23:45:23.308Z,1.90
2019-02-25T23:48:11.805Z,1.90
2019-02-25T23:50:59.661Z,1.80
2019-02-25T23:53:48.666Z,1.70
2019-02-25T23:56:35.870Z,1.90
2019-02-25T23:59:24.733Z,1.80
